Time;durP1;ratioP1;P1;durP2;ratioP2;P2;SDS_P1;SDS_P2;PMS_P1;PMS_P2;Temp;Humidity;BMP_temperature;BMP_pressure;BME280_temperature;BME280_humidity;BME280_pressure;Samples;Min_cycle;Max_cycle;Signal;HPM_P1;HPM_P2
2022/06/21 00:02:13;;;;;;;1.73;0.95;;;23.20;47.40;22.40;101274.00;;;;5048721;28;20076;-68
2022/06/21 00:04:59;;;;;;;2.60;0.90;;;23.10;47.20;22.40;101283.00;;;;5056265;28;20041;-67
2022/06/21 00:07:45;;;;;;;2.03;0.90;;;23.20;47.30;22.40;101284.00;;;;5067211;28;20166;-68
2022/06/21 00:10:34;;;;;;;1.30;0.65;;;23.20;47.50;22.40;101279.00;;;;5050857;28;20096;-68
2022/06/21 00:13:32;;;;;;;2.33;0.90;;;23.10;47.10;22.40;101279.00;;;;5065008;28;20040;-67
2022/06/21 00:16:18;;;;;;;3.20;0.85;;;23.10;47.20;22.40;101281.00;;;;5062753;28;20494;-67
2022/06/21 00:19:05;;;;;;;2.05;1.10;;;23.20;47.30;22.30;101285.00;;;;5051778;28;20040;-67
2022/06/21 00:21:52;;;;;;;1.85;0.95;;;23.20;47.30;22.30;101297.00;;;;5053747;28;20051;-67
2022/06/21 00:24:38;;;;;;;2.53;0.85;;;23.10;47.20;22.30;101293.00;;;;5069254;28;20299;-67
2022/06/21 00:27:24;;;;;;;2.38;0.70;;;23.10;47.10;22.30;101284.00;;;;5067908;28;20047;-67
2022/06/21 00:30:11;;;;;;;2.92;0.90;;;23.10;47.10;22.30;101273.00;;;;5066985;28;20043;-67
2022/06/21 00:32:57;;;;;;;3.42;0.80;;;23.10;47.20;22.30;101269.00;;;;5066891;28;20036;-67
2022/06/21 00:35:46;;;;;;;2.30;1.02;;;23.10;47.20;22.30;101278.00;;;;5060902;28;20041;-68
2022/06/21 00:38:32;;;;;;;1.92;0.70;;;23.00;47.20;22.30;101280.00;;;;5055644;28;20036;-67
2022/06/21 00:41:37;;;;;;;2.78;0.85;;;23.10;47.30;22.30;101283.00;;;;5049972;28;20046;-67
2022/06/21 00:44:38;;;;;;;1.30;0.90;;;23.00;47.20;22.30;101274.00;;;;5052916;28;20477;-67
2022/06/21 00:47:36;;;;;;;1.95;0.88;;;23.00;47.20;22.30;101282.00;;;;5051191;28;20059;-68
2022/06/21 00:50:32;;;;;;;2.60;1.08;;;23.00;47.30;22.30;101276.00;;;;5047675;28;20037;-67
2022/06/21 00:53:23;;;;;;;2.08;0.70;;;23.00;47.30;22.20;101283.00;;;;5042709;28;20048;-68
2022/06/21 00:56:20;;;;;;;1.55;0.82;;;22.90;47.20;22.20;101274.00;;;;5057592;28;20035;-67
2022/06/21 00:59:18;;;;;;;2.72;1.00;;;23.00;47.20;22.20;101275.00;;;;5057085;28;20044;-68
2022/06/21 01:02:07;;;;;;;1.60;0.70;;;23.00;47.10;22.20;101277.00;;;;5045586;28;20115;-68
2022/06/21 01:04:54;;;;;;;2.95;0.70;;;22.90;47.00;22.20;101277.00;;;;5046552;28;20049;-68
2022/06/21 01:07:41;;;;;;;;;;;22.90;47.10;22.10;101270.00;;;;5049984;28;20402;-67
2022/06/21 01:10:28;;;;;;;2.45;0.70;;;22.90;47.20;22.20;101269.00;;;;5050403;28;20015;-67
2022/06/21 01:13:17;;;;;;;2.55;0.80;;;23.00;47.00;22.10;101259.00;;;;5051324;28;20048;-67
2022/06/21 01:16:04;;;;;;;1.35;0.68;;;22.90;47.00;22.10;101271.00;;;;5047351;28;20083;-68
2022/06/21 01:18:50;;;;;;;2.33;0.77;;;22.90;47.10;22.10;101267.00;;;;5052488;28;20044;-68
2022/06/21 01:21:36;;;;;;;1.33;0.85;;;23.00;47.10;22.10;101265.00;;;;5061304;28;20482;-68
2022/06/21 01:24:30;;;;;;;1.95;0.95;;;22.90;47.10;22.10;101266.00;;;;5057556;28;20048;-67
2022/06/21 01:27:16;;;;;;;1.90;1.10;;;22.90;47.20;22.10;101265.00;;;;5058803;28;20041;-68
2022/06/21 01:30:04;;;;;;;2.35;0.75;;;22.80;47.00;22.10;101280.00;;;;5048764;28;20051;-68
2022/06/21 01:32:50;;;;;;;1.90;0.80;;;22.80;47.10;22.10;101284.00;;;;5043131;28;20037;-67
2022/06/21 01:35:41;;;;;;;4.10;1.02;;;22.80;47.10;22.10;101286.00;;;;5048541;28;20051;-68
2022/06/21 01:38:32;;;;;;;1.30;0.60;;;22.80;47.10;22.10;101280.00;;;;5051332;28;20517;-67
2022/06/21 01:41:22;;;;;;;1.77;0.60;;;22.80;47.10;22.10;101277.00;;;;5039084;28;20037;-68
2022/06/21 01:44:15;;;;;;;2.22;0.77;;;22.80;47.20;22.10;101271.00;;;;5065877;28;20040;-68
2022/06/21 01:47:03;;;;;;;1.92;0.80;;;22.80;47.10;22.00;101274.00;;;;5065310;28;20040;-67
2022/06/21 01:49:54;;;;;;;1.73;0.60;;;22.80;47.10;22.00;101285.00;;;;5057034;28;20045;-68
2022/06/21 01:52:43;;;;;;;3.08;0.88;;;22.80;47.20;22.00;101285.00;;;;5047402;28;20413;-68
2022/06/21 01:55:35;;;;;;;1.88;1.02;;;22.80;47.10;22.00;101285.00;;;;5045493;28;20040;-68
2022/06/21 01:58:28;;;;;;;1.42;0.50;;;22.70;47.20;22.00;101283.00;;;;5044637;28;20098;-68
2022/06/21 02:01:47;;;;;;;2.45;0.50;;;22.70;47.10;22.00;101277.00;;;;5048518;28;20041;-67
2022/06/21 02:04:37;;;;;;;1.42;0.73;;;22.70;47.20;22.00;101277.00;;;;5062148;28;20548;-67
2022/06/21 02:07:37;;;;;;;1.92;0.50;;;22.70;47.30;22.00;101280.00;;;;5049142;28;20462;-68
2022/06/21 02:10:32;;;;;;;1.98;0.70;;;22.70;47.30;22.00;101274.00;;;;5057309;28;20474;-68
2022/06/21 02:13:45;;;;;;;1.45;0.70;;;22.70;47.30;22.00;101256.00;;;;5038161;28;20040;-67
2022/06/21 02:16:31;;;;;;;2.38;0.70;;;22.70;47.30;22.00;101261.00;;;;5063060;28;20462;-67
2022/06/21 02:19:28;;;;;;;2.85;0.68;;;22.70;47.30;21.90;101253.00;;;;5051944;28;20040;-67
2022/06/21 02:22:19;;;;;;;3.00;0.90;;;22.70;47.30;21.90;101254.00;;;;5048423;28;20041;-67
2022/06/21 02:25:06;;;;;;;3.70;0.70;;;22.70;47.20;21.90;101246.00;;;;5050207;28;20491;-67
2022/06/21 02:27:59;;;;;;;0.98;0.68;;;22.70;47.30;21.90;101252.00;;;;5050797;28;20459;-67
2022/06/21 02:30:45;;;;;;;1.00;0.60;;;22.70;47.30;21.90;101242.00;;;;5060806;28;20045;-68
2022/06/21 02:33:32;;;;;;;2.75;0.50;;;22.70;47.20;21.90;101246.00;;;;5055116;28;20489;-68
2022/06/21 02:36:27;;;;;;;2.58;0.60;;;22.60;47.20;21.90;101260.00;;;;5061977;28;20047;-68
2022/06/21 02:39:17;;;;;;;1.55;0.50;;;22.60;47.10;21.90;101266.00;;;;5048434;28;20048;-68
2022/06/21 02:42:24;;;;;;;2.10;0.60;;;22.60;47.10;21.90;101258.00;;;;5050289;28;20123;-67
2022/06/21 02:45:54;;;;;;;3.75;1.10;;;22.60;47.10;21.80;101256.00;;;;5063295;28;20063;-68
2022/06/21 02:49:12;;;;;;;1.20;0.75;;;22.60;47.10;21.80;101246.00;;;;5062557;28;20064;-68
2022/06/21 02:52:27;;;;;;;2.53;0.57;;;22.60;47.00;21.80;101239.00;;;;5046985;28;20045;-68
2022/06/21 02:55:42;;;;;;;0.88;0.50;;;22.60;47.00;21.80;101247.00;;;;5063420;28;20038;-68
2022/06/21 02:58:45;;;;;;;2.20;0.88;;;22.50;47.00;21.80;101235.00;;;;5063914;28;20044;-67
2022/06/21 03:01:39;;;;;;;2.30;0.55;;;22.50;47.00;21.80;101229.00;;;;5038342;28;20129;-68
2022/06/21 03:04:37;;;;;;;1.08;0.40;;;22.50;47.10;21.70;101231.00;;;;5036274;28;20037;-68
2022/06/21 03:07:26;;;;;;;0.98;0.60;;;22.50;47.10;21.70;101224.00;;;;5052771;28;20465;-68
2022/06/21 03:10:23;;;;;;;1.88;0.65;;;22.50;47.20;21.70;101225.00;;;;5049622;28;20090;-68
2022/06/21 03:13:17;;;;;;;1.23;0.63;;;22.50;47.20;21.70;101215.00;;;;5048474;28;20059;-68
2022/06/21 03:16:13;;;;;;;1.15;0.47;;;22.40;47.10;21.80;101223.00;;;;5051770;28;20521;-68
2022/06/21 03:19:01;;;;;;;1.58;0.70;;;22.50;47.20;21.70;101223.00;;;;5044154;28;20139;-68
2022/06/21 03:21:47;;;;;;;;;;;22.40;47.10;21.70;101226.00;;;;5054485;28;20429;-68
2022/06/21 03:24:33;;;;;;;2.22;0.70;;;22.40;47.30;21.70;101227.00;;;;5058085;28;19912;-68
2022/06/21 03:27:59;;;;;;;2.53;0.50;;;22.50;47.10;21.70;101229.00;;;;5064145;28;20036;-68
2022/06/21 03:30:45;;;;;;;0.93;0.47;;;22.40;47.10;21.70;101229.00;;;;5038324;28;20040;-68
2022/06/21 03:33:32;;;;;;;1.63;0.50;;;22.50;47.20;21.70;101232.00;;;;5051610;28;20032;-68
2022/06/21 03:36:21;;;;;;;2.10;0.57;;;22.40;47.10;21.70;101224.00;;;;5058002;28;20079;-69
2022/06/21 03:39:18;;;;;;;1.40;0.60;;;22.50;47.10;21.70;101236.00;;;;5052294;28;20402;-67
2022/06/21 03:42:04;;;;;;;1.38;0.57;;;22.50;47.10;21.70;101249.00;;;;5053348;28;20037;-68
2022/06/21 03:44:58;;;;;;;1.73;0.82;;;22.40;47.00;21.70;101242.00;;;;5044102;28;20036;-68
2022/06/21 03:48:01;;;;;;;2.17;0.70;;;22.30;46.80;21.60;101257.00;;;;5046629;28;20071;-68
2022/06/21 03:50:53;;;;;;;1.70;0.57;;;22.40;46.70;21.60;101263.00;;;;5042804;28;20207;-68
2022/06/21 03:53:46;;;;;;;0.60;0.47;;;22.30;46.70;21.60;101261.00;;;;5045024;28;20063;-68
2022/06/21 03:56:51;;;;;;;1.15;0.50;;;22.40;46.70;21.60;101266.00;;;;5048571;28;20037;-67
2022/06/21 03:59:56;;;;;;;1.27;0.60;;;22.30;46.60;21.60;101262.00;;;;5048277;28;20044;-68
2022/06/21 04:02:50;;;;;;;1.38;0.77;;;22.30;46.60;21.60;101267.00;;;;5047536;28;20037;-68
2022/06/21 04:05:47;;;;;;;2.35;0.85;;;22.40;46.60;21.60;101254.00;;;;5052097;28;20657;-68
2022/06/21 04:09:11;;;;;;;1.17;0.57;;;22.40;46.70;21.60;101261.00;;;;5050257;28;20041;-68
2022/06/21 04:12:34;;;;;;;2.00;0.60;;;22.30;46.80;21.50;101265.00;;;;5022637;28;20071;-67
2022/06/21 04:15:35;;;;;;;1.25;0.50;;;22.30;46.80;21.60;101267.00;;;;5048167;28;20045;-68
2022/06/21 04:18:31;;;;;;;1.25;0.80;;;22.30;46.80;21.50;101259.00;;;;5055251;28;20036;-68
2022/06/21 04:21:44;;;;;;;1.08;0.65;;;22.30;46.70;21.50;101266.00;;;;5059583;28;20033;-68
2022/06/21 04:24:38;;;;;;;3.20;0.90;;;22.30;46.70;21.50;101275.00;;;;5047121;28;20489;-68
2022/06/21 04:27:33;;;;;;;4.40;0.80;;;22.30;46.60;21.50;101270.00;;;;5048910;28;20280;-68
2022/06/21 04:30:35;;;;;;;3.35;0.70;;;22.30;46.70;21.50;101265.00;;;;5051479;28;20398;-68
2022/06/21 04:33:32;;;;;;;2.13;0.70;;;22.20;46.80;21.50;101255.00;;;;5046139;28;20041;-68
2022/06/21 04:36:57;;;;;;;2.38;0.73;;;22.30;46.80;21.50;101263.00;;;;5044750;28;20464;-68
2022/06/21 04:39:57;;;;;;;1.75;0.82;;;22.30;46.90;21.50;101270.00;;;;5014532;28;20043;-68
2022/06/21 04:43:11;;;;;;;3.25;0.73;;;22.30;46.90;21.50;101276.00;;;;5048255;28;20085;-68
2022/06/21 04:46:05;;;;;;;1.90;0.55;;;22.30;46.90;21.50;101291.00;;;;5061787;28;20041;-68
2022/06/21 04:49:15;;;;;;;1.88;0.60;;;22.30;46.90;21.50;101290.00;;;;5052376;28;20383;-67
2022/06/21 04:52:27;;;;;;;1.08;0.60;;;22.30;46.80;21.50;101288.00;;;;5055376;28;20082;-68
2022/06/21 04:55:17;;;;;;;0.70;0.50;;;22.20;46.70;21.50;101290.00;;;;5060934;28;20075;-68
2022/06/21 04:58:03;;;;;;;2.83;0.80;;;22.30;46.80;21.50;101287.00;;;;5065735;28;20564;-68
2022/06/21 05:00:49;;;;;;;1.42;0.52;;;22.30;46.80;21.50;101287.00;;;;5052725;28;20065;-68
2022/06/21 05:03:39;;;;;;;0.60;0.50;;;22.30;46.80;21.50;101292.00;;;;5052416;28;20033;-68
2022/06/21 05:06:25;;;;;;;2.55;0.90;;;22.30;46.80;21.50;101294.00;;;;5052153;28;20112;-68
2022/06/21 05:09:19;;;;;;;1.60;0.60;;;22.30;46.80;21.50;101302.00;;;;5045535;28;20110;-68
2022/06/21 05:12:31;;;;;;;1.30;0.65;;;22.20;46.80;21.50;101295.00;;;;5057420;28;20033;-67
2022/06/21 05:15:26;;;;;;;1.55;0.60;;;22.30;46.90;21.50;101296.00;;;;5054782;28;20036;-68
2022/06/21 05:18:32;;;;;;;1.60;0.70;;;22.30;46.80;21.50;101294.00;;;;5036758;28;20045;-68
2022/06/21 05:21:34;;;;;;;2.10;0.60;;;22.30;46.80;21.60;101288.00;;;;5055439;28;20052;-68
2022/06/21 05:24:20;;;;;;;0.75;0.50;;;22.30;46.90;21.60;101291.00;;;;5059732;28;20043;-68
2022/06/21 05:27:11;;;;;;;2.05;0.70;;;22.30;46.80;21.60;101290.00;;;;5048020;28;20175;-68
2022/06/21 05:30:10;;;;;;;0.82;0.50;;;22.30;46.90;21.60;101283.00;;;;5067234;28;20036;-68
2022/06/21 05:32:59;;;;;;;0.75;0.60;;;22.30;46.90;21.60;101278.00;;;;5057124;28;20127;-68
2022/06/21 05:35:45;;;;;;;1.45;0.65;;;22.40;46.90;21.60;101282.00;;;;5040306;28;20080;-68
2022/06/21 05:38:31;;;;;;;1.77;0.90;;;22.40;46.90;21.60;101286.00;;;;5053536;28;20028;-67
2022/06/21 05:41:31;;;;;;;1.63;0.68;;;22.30;46.90;21.60;101287.00;;;;5054097;28;20131;-68
2022/06/21 05:44:31;;;;;;;2.08;0.60;;;22.40;47.00;21.60;101281.00;;;;5060900;28;20128;-68
2022/06/21 05:47:36;;;;;;;1.83;0.80;;;22.40;47.00;21.60;101286.00;;;;5059518;28;20824;-68
2022/06/21 05:50:31;;;;;;;2.72;0.90;;;22.40;47.10;21.60;101284.00;;;;5062347;28;20048;-68
2022/06/21 05:53:30;;;;;;;3.78;0.80;;;22.40;47.10;21.60;101282.00;;;;5058859;28;20055;-68
2022/06/21 05:56:19;;;;;;;1.67;0.73;;;22.40;47.20;21.60;101253.00;;;;5051986;28;20044;-68
2022/06/21 05:59:11;;;;;;;3.38;0.98;;;22.30;47.10;21.60;101246.00;;;;5051595;28;20205;-68
2022/06/21 06:02:14;;;;;;;2.20;0.77;;;22.40;47.20;21.60;101248.00;;;;5064984;28;20140;-68
2022/06/21 06:05:27;;;;;;;2.13;1.00;;;22.40;47.30;21.60;101264.00;;;;5054542;28;20410;-68
2022/06/21 06:08:19;;;;;;;2.05;0.80;;;22.30;47.90;21.60;101253.00;;;;5053689;28;20071;-68
2022/06/21 06:11:10;;;;;;;0.85;0.63;;;22.40;47.20;21.60;101256.00;;;;5051153;28;20033;-68
2022/06/21 06:13:56;;;;;;;1.15;0.70;;;22.40;47.20;21.70;101272.00;;;;5039481;28;20045;-68
2022/06/21 06:16:42;;;;;;;1.33;0.70;;;22.40;47.10;21.70;101264.00;;;;5038709;28;20033;-68
2022/06/21 06:19:40;;;;;;;2.88;0.88;;;22.50;47.20;21.70;101271.00;;;;5050699;28;20086;-68
2022/06/21 06:22:37;;;;;;;2.45;0.80;;;22.50;47.20;21.70;101267.00;;;;5039965;28;20048;-67
2022/06/21 06:25:52;;;;;;;1.65;0.65;;;22.50;47.10;21.70;101268.00;;;;5053025;28;20106;-68
2022/06/21 06:29:18;;;;;;;3.35;1.02;;;22.60;47.30;21.70;101270.00;;;;5055918;28;20040;-68
2022/06/21 06:32:27;;;;;;;2.10;0.63;;;22.60;47.20;21.70;101262.00;;;;5053578;28;20102;-68
2022/06/21 06:35:33;;;;;;;2.25;0.82;;;22.50;47.20;21.70;101265.00;;;;5051628;28;20044;-68
2022/06/21 06:38:19;;;;;;;3.33;0.82;;;22.50;47.20;21.70;101268.00;;;;5048990;28;20045;-68
2022/06/21 06:41:11;;;;;;;2.30;0.77;;;22.60;47.30;21.70;101273.00;;;;5047854;28;20114;-68
2022/06/21 06:44:11;;;;;;;2.65;0.70;;;22.60;47.30;21.70;101284.00;;;;5046746;28;20578;-68
2022/06/21 06:46:59;;;;;;;1.50;0.90;;;22.60;47.30;21.70;101283.00;;;;5041121;28;20124;-68
2022/06/21 06:49:56;;;;;;;2.28;0.85;;;22.60;47.30;21.70;101286.00;;;;5041105;28;20033;-68
2022/06/21 06:53:21;;;;;;;1.90;0.93;;;22.60;47.30;21.70;101283.00;;;;5062606;28;20036;-68
2022/06/21 06:56:17;;;;;;;2.25;0.90;;;22.60;47.20;21.70;101283.00;;;;5020576;28;20482;-68
2022/06/21 06:59:07;;;;;;;1.88;0.90;;;22.60;47.20;21.70;101289.00;;;;5052474;28;20563;-67
2022/06/21 07:02:04;;;;;;;2.17;0.70;;;22.70;47.40;21.80;101297.00;;;;5051384;28;20051;-68
2022/06/21 07:05:34;;;;;;;1.73;0.70;;;22.70;47.30;21.70;101286.00;;;;5043621;28;20101;-68
2022/06/21 07:08:36;;;;;;;0.95;0.50;;;22.60;47.20;21.70;101285.00;;;;5062049;28;20102;-68
2022/06/21 07:11:43;;;;;;;2.03;0.70;;;22.60;47.20;21.80;101273.00;;;;5034435;28;20516;-67
2022/06/21 07:14:29;;;;;;;2.53;0.82;;;22.60;47.30;21.80;101271.00;;;;5059776;28;20029;-67
2022/06/21 07:17:37;;;;;;;2.45;0.90;;;22.70;47.40;21.80;101268.00;;;;5047844;28;20037;-67
2022/06/21 07:20:36;;;;;;;1.55;0.82;;;22.70;47.40;21.80;101272.00;;;;5047304;28;20124;-67
2022/06/21 07:23:24;;;;;;;1.23;0.68;;;22.70;47.30;21.80;101278.00;;;;5060049;28;20386;-67
2022/06/21 07:26:18;;;;;;;1.75;0.70;;;22.70;47.30;21.80;101279.00;;;;5052038;28;20093;-67
2022/06/21 07:29:22;;;;;;;7.13;1.35;;;22.70;47.20;21.80;101275.00;;;;5061096;28;20044;-67
2022/06/21 07:32:17;;;;;;;2.05;0.68;;;22.70;47.30;21.80;101273.00;;;;5052481;28;20040;-67
2022/06/21 07:35:11;;;;;;;2.08;0.73;;;22.70;47.30;21.80;101280.00;;;;5052696;28;20072;-68
2022/06/21 07:38:32;;;;;;;2.83;1.08;;;22.70;47.40;21.80;101286.00;;;;5050576;28;20040;-68
2022/06/21 07:41:36;;;;;;;2.83;0.70;;;22.70;47.40;21.80;101281.00;;;;5051940;28;20464;-68
2022/06/21 07:44:39;;;;;;;1.65;0.60;;;22.70;47.30;21.80;101283.00;;;;5059058;28;20465;-68
2022/06/21 07:47:44;;;;;;;2.33;0.70;;;22.70;47.30;21.80;101279.00;;;;5049699;28;20127;-67
2022/06/21 07:50:49;;;;;;;2.05;0.60;;;22.70;47.30;21.80;101280.00;;;;5036192;28;20040;-67
2022/06/21 07:53:40;;;;;;;2.08;0.80;;;22.70;47.30;21.80;101271.00;;;;5047878;28;20055;-68
2022/06/21 07:56:54;;;;;;;1.88;0.65;;;22.70;47.20;21.80;101267.00;;;;5050045;28;20039;-68
2022/06/21 07:59:43;;;;;;;1.58;0.60;;;22.70;47.20;21.80;101268.00;;;;5062298;28;20402;-68
2022/06/21 08:09:33;;;;;;;2.75;0.88;;;22.70;47.30;21.80;101272.00;;;;5052681;28;20125;-68
2022/06/21 08:12:19;;;;;;;3.05;0.52;;;22.70;47.40;21.80;101266.00;;;;5046754;28;20040;-68
2022/06/21 08:15:06;;;;;;;2.80;0.88;;;22.80;47.30;21.80;101265.00;;;;5039967;28;20129;-68
2022/06/21 08:17:59;;;;;;;1.02;0.73;;;22.80;47.30;21.80;101256.00;;;;5060781;28;20080;-68
2022/06/21 08:20:49;;;;;;;2.05;0.60;;;22.70;47.20;21.80;101270.00;;;;5051556;28;20500;-68
2022/06/21 08:23:45;;;;;;;3.05;1.35;;;22.70;47.30;21.80;101271.00;;;;5053537;28;20097;-68
2022/06/21 08:26:45;;;;;;;1.67;0.73;;;22.70;47.30;21.80;101261.00;;;;5051229;28;20832;-68
2022/06/21 08:29:46;;;;;;;2.58;0.55;;;22.70;47.30;21.80;101269.00;;;;5037018;28;20501;-68
2022/06/21 08:32:49;;;;;;;3.70;0.75;;;22.70;47.20;21.80;101258.00;;;;5058545;28;20032;-67
2022/06/21 08:35:40;;;;;;;1.85;0.60;;;22.70;47.20;21.80;101260.00;;;;5032881;28;20090;-67
2022/06/21 08:38:37;;;;;;;2.05;1.02;;;22.80;47.20;21.80;101260.00;;;;5053158;28;20040;-67
2022/06/21 08:41:57;;;;;;;2.07;0.67;;;22.80;47.30;21.80;101254.00;;;;5049539;28;20044;-68
2022/06/21 08:49:08;;;;;;;1.55;0.60;;;22.80;47.20;21.80;101243.00;;;;5058142;28;20101;-67
2022/06/21 08:52:15;;;;;;;1.80;0.75;;;22.80;47.20;21.80;101252.00;;;;5062377;28;20055;-67
2022/06/21 08:55:10;;;;;;;3.33;1.02;;;22.80;47.20;21.80;101252.00;;;;5062226;28;20093;-67
2022/06/21 08:58:33;;;;;;;3.33;1.00;;;22.80;47.10;21.80;101244.00;;;;5064430;28;20128;-68
2022/06/21 09:01:50;;;;;;;2.10;0.80;;;22.80;47.10;21.80;101236.00;;;;5062486;28;20059;-67
2022/06/21 09:05:15;;;;;;;3.65;1.02;;;22.80;46.90;21.80;101231.00;;;;5042190;28;20474;-68
2022/06/21 09:08:16;;;;;;;1.42;0.60;;;22.80;47.10;21.80;101237.00;;;;5049431;28;20055;-68
2022/06/21 09:11:51;;;;;;;2.50;0.70;;;22.80;47.90;21.80;101230.00;;;;5064765;28;20045;-69
2022/06/21 09:15:21;;;;;;;1.25;0.50;;;22.80;47.20;21.80;101220.00;;;;5065873;28;20044;-68
2022/06/21 09:18:37;;;;;;;2.35;0.73;;;22.80;47.10;21.80;101230.00;;;;5064426;28;20394;-68
2022/06/21 09:22:06;;;;;;;2.67;0.57;;;22.80;47.20;21.80;101222.00;;;;5051492;28;20044;-68
2022/06/21 09:25:00;;;;;;;2.85;0.60;;;22.80;47.20;21.80;101214.00;;;;5040812;28;20128;-67
2022/06/21 09:27:52;;;;;;;2.92;1.38;;;22.80;47.10;21.80;101214.00;;;;5062969;28;20132;-67
2022/06/21 09:30:43;;;;;;;2.88;0.82;;;22.80;47.20;21.90;101205.00;;;;5053937;28;20050;-68
2022/06/21 09:33:38;;;;;;;2.75;1.00;;;22.80;47.10;21.90;101203.00;;;;5052334;28;20461;-68
2022/06/21 09:36:39;;;;;;;2.10;0.70;;;22.80;47.10;21.90;101208.00;;;;5053522;28;20033;-67
2022/06/21 09:39:42;;;;;;;2.20;0.77;;;22.80;47.10;21.90;101197.00;;;;5069360;28;20049;-67
2022/06/21 09:42:42;;;;;;;1.42;0.65;;;22.80;47.00;21.90;101191.00;;;;5050059;28;20060;-67
2022/06/21 09:45:38;;;;;;;1.38;0.50;;;22.80;47.10;21.90;101197.00;;;;5064513;28;20490;-68
2022/06/21 09:48:53;;;;;;;4.22;0.90;;;22.80;47.60;21.90;101204.00;;;;5050062;28;20063;-68
2022/06/21 09:52:13;;;;;;;2.60;0.52;;;22.90;47.10;21.90;101203.00;;;;5036854;28;20040;-68
2022/06/21 09:55:55;;;;;;;0.82;0.30;;;22.80;47.00;21.90;101191.00;;;;5046227;28;20044;-68
2022/06/21 09:59:06;;;;;;;1.20;0.57;;;22.90;47.00;21.90;101181.00;;;;5053253;28;20737;-68
2022/06/21 10:02:16;;;;;;;3.28;0.60;;;22.90;47.00;21.90;101178.00;;;;5061028;28;20040;-68
2022/06/21 10:05:15;;;;;;;1.50;0.55;;;22.90;47.00;21.90;101174.00;;;;5059562;28;20085;-68
2022/06/21 10:08:54;;;;;;;4.25;0.80;;;22.90;47.00;21.90;101174.00;;;;5056350;28;20109;-68
2022/06/21 10:11:54;;;;;;;2.15;0.70;;;22.90;47.10;21.90;101177.00;;;;5056618;28;20037;-68
2022/06/21 10:15:23;;;;;;;1.60;0.50;;;22.90;47.00;21.90;101182.00;;;;5039731;28;20077;-68
2022/06/21 10:18:23;;;;;;;2.15;0.63;;;22.90;47.70;21.90;101171.00;;;;5069389;28;20032;-67
2022/06/21 10:21:28;;;;;;;0.80;0.50;;;22.90;47.00;21.90;101175.00;;;;5060722;28;20486;-67
2022/06/21 10:24:31;;;;;;;2.50;0.70;;;22.90;47.00;21.90;101173.00;;;;5057252;28;20039;-68
2022/06/21 10:27:36;;;;;;;2.90;0.60;;;22.90;47.00;21.90;101168.00;;;;5065118;28;20044;-68
2022/06/21 10:31:05;;;;;;;2.92;0.43;;;22.90;46.90;21.90;101175.00;;;;5061675;28;20401;-67
2022/06/21 10:34:14;;;;;;;2.30;0.70;;;22.90;47.00;21.90;101168.00;;;;5054757;28;20037;-68
2022/06/21 10:37:59;;;;;;;1.02;0.57;;;22.90;46.90;21.90;101170.00;;;;5041349;28;20043;-67
2022/06/21 10:45:22;;;;;;;2.80;0.80;;;22.90;46.90;21.90;101152.00;;;;4959148;28;20046;-68
2022/06/21 10:48:57;;;;;;;3.35;0.93;;;23.00;46.80;21.90;101149.00;;;;4991209;28;20280;-67
2022/06/21 10:52:16;;;;;;;4.38;0.90;;;22.90;46.90;21.90;101148.00;;;;5049301;28;20113;-68
2022/06/21 10:59:24;;;;;;;1.63;0.63;;;22.90;46.80;21.90;101143.00;;;;5067676;28;20068;-67
2022/06/21 11:02:16;;;;;;;4.13;0.75;;;22.90;46.90;21.90;101129.00;;;;5059665;28;20043;-68
2022/06/21 11:05:20;;;;;;;1.42;0.70;;;22.90;46.90;22.00;101123.00;;;;5056854;28;20098;-67
2022/06/21 11:08:28;;;;;;;2.70;0.60;;;22.90;47.00;22.00;101119.00;;;;5069692;28;20522;-68
2022/06/21 11:11:31;;;;;;;3.87;0.70;;;22.90;46.80;22.00;101124.00;;;;5058954;28;20114;-67
2022/06/21 11:14:43;;;;;;;1.80;0.60;;;22.90;46.60;22.00;101115.00;;;;5064593;28;20397;-67
2022/06/21 11:17:47;;;;;;;0.77;0.50;;;23.00;46.70;22.00;101121.00;;;;5068796;28;20496;-67
2022/06/21 11:20:48;;;;;;;1.48;0.50;;;23.00;46.60;22.00;101114.00;;;;5053900;28;20045;-67
2022/06/21 11:24:04;;;;;;;1.65;0.40;;;23.00;46.60;22.00;101113.00;;;;5052149;28;20040;-68
2022/06/21 11:27:30;;;;;;;1.67;0.60;;;23.00;46.60;22.00;101106.00;;;;5063251;28;20044;-67
2022/06/21 11:30:26;;;;;;;3.20;0.60;;;23.00;46.50;22.00;101091.00;;;;5040916;28;20504;-67
2022/06/21 11:33:23;;;;;;;1.42;0.40;;;23.00;46.60;22.00;101089.00;;;;5053044;28;20040;-67
2022/06/21 11:36:29;;;;;;;1.95;0.43;;;23.10;46.60;22.00;101086.00;;;;5055003;28;20040;-68
2022/06/21 11:39:35;;;;;;;0.70;0.25;;;23.00;46.50;22.00;101095.00;;;;5047171;28;20041;-68
2022/06/21 11:42:27;;;;;;;0.98;0.40;;;23.00;46.40;22.00;101089.00;;;;5047904;28;20509;-67
2022/06/21 11:45:48;;;;;;;2.42;0.77;;;23.10;46.20;22.00;101088.00;;;;5046859;28;20110;-67
2022/06/21 11:48:58;;;;;;;1.65;0.52;;;23.10;46.30;22.00;101086.00;;;;5064275;28;20083;-67
2022/06/21 11:52:21;;;;;;;2.40;0.30;;;23.00;46.30;22.00;101066.00;;;;5058014;28;20041;-67
2022/06/21 11:55:31;;;;;;;1.45;0.60;;;23.10;46.30;22.00;101063.00;;;;5060433;28;20459;-67
2022/06/21 11:58:34;;;;;;;1.83;0.63;;;23.10;46.40;22.00;101063.00;;;;5044867;28;20045;-68
2022/06/21 12:01:32;;;;;;;1.15;0.40;;;23.10;46.40;22.00;101068.00;;;;5040159;28;20048;-67
2022/06/21 12:04:54;;;;;;;1.80;0.52;;;23.10;46.60;22.00;101068.00;;;;5048603;28;20033;-67
2022/06/21 12:07:46;;;;;;;1.13;0.52;;;23.10;46.60;22.00;101066.00;;;;5045562;28;20137;-67
2022/06/21 12:11:12;;;;;;;1.15;0.50;;;23.10;46.30;22.00;101075.00;;;;5044095;28;20036;-67
2022/06/21 12:15:01;;;;;;;1.45;0.45;;;23.10;46.40;22.00;101068.00;;;;5036585;28;20040;-68
2022/06/21 12:17:58;;;;;;;1.90;0.50;;;23.10;46.30;22.10;101065.00;;;;5002241;28;20049;-67
2022/06/21 12:20:56;;;;;;;3.85;0.40;;;23.10;46.40;22.10;101065.00;;;;4993908;28;20484;-68
2022/06/21 12:23:45;;;;;;;2.03;0.40;;;23.10;46.30;22.10;101058.00;;;;5048359;28;20110;-67
2022/06/21 12:26:33;;;;;;;1.27;0.52;;;23.10;46.30;22.10;101061.00;;;;5048541;28;20052;-67
2022/06/21 12:29:20;;;;;;;2.25;0.50;;;23.20;46.30;22.10;101054.00;;;;5035990;28;20040;-67
2022/06/21 12:32:07;;;;;;;3.15;0.60;;;23.10;46.40;22.10;101068.00;;;;5047282;28;20087;-67
2022/06/21 12:35:15;;;;;;;1.08;0.30;;;23.10;46.30;22.10;101067.00;;;;5060067;28;20384;-68
2022/06/21 12:38:01;;;;;;;2.13;0.95;;;23.10;46.20;22.10;101059.00;;;;5063612;28;20036;-67
2022/06/21 12:41:13;;;;;;;2.38;0.57;;;23.20;46.40;22.10;101061.00;;;;5046169;28;20051;-67
2022/06/21 12:44:43;;;;;;;1.17;0.38;;;23.10;46.00;22.10;101054.00;;;;5046838;28;20044;-67
2022/06/21 12:48:21;;;;;;;1.55;0.40;;;23.10;46.30;22.10;101054.00;;;;5047629;28;20068;-66
2022/06/21 12:51:37;;;;;;;2.30;0.55;;;23.10;47.10;22.10;101048.00;;;;5048335;28;20103;-66
2022/06/21 12:54:55;;;;;;;3.00;0.77;;;23.20;46.40;22.10;101049.00;;;;5045639;28;20483;-67
2022/06/21 12:58:05;;;;;;;2.05;0.45;;;23.20;46.50;22.10;101048.00;;;;5050989;28;20040;-66
2022/06/21 13:00:55;;;;;;;0.82;0.50;;;23.20;46.50;22.10;101044.00;;;;5055910;28;20052;-66
2022/06/21 13:04:00;;;;;;;1.48;0.60;;;23.20;46.40;22.10;101043.00;;;;5064378;28;20044;-66
2022/06/21 13:07:23;;;;;;;1.25;0.30;;;23.20;46.50;22.10;101038.00;;;;5046813;28;20044;-67
2022/06/21 13:11:20;;;;;;;0.95;0.65;;;23.20;46.40;22.10;101041.00;;;;5060841;28;20120;-66
2022/06/21 13:14:17;;;;;;;1.23;0.50;;;23.20;46.50;22.10;101048.00;;;;5054787;28;20068;-67
2022/06/21 13:17:56;;;;;;;1.77;0.47;;;23.20;46.40;22.10;101033.00;;;;5055539;28;20042;-66
2022/06/21 13:21:16;;;;;;;0.70;0.40;;;23.20;46.50;22.10;101041.00;;;;5065325;28;20039;-66
2022/06/21 13:24:29;;;;;;;0.52;0.40;;;23.20;46.60;22.10;101035.00;;;;5057868;28;20045;-67
2022/06/21 13:28:12;;;;;;;3.63;0.77;;;23.20;46.40;22.10;101033.00;;;;5063930;28;20068;-66
2022/06/21 13:31:08;;;;;;;0.52;0.50;;;23.20;46.50;22.10;101037.00;;;;5018502;28;20512;-66
2022/06/21 13:34:17;;;;;;;1.77;0.80;;;23.20;46.40;22.10;101030.00;;;;5048567;28;20109;-66
2022/06/21 13:37:40;;;;;;;0.52;0.40;;;23.20;46.40;22.10;101035.00;;;;5044979;28;20048;-66